Time;durP1;ratioP1;P1;durP2;ratioP2;P2;SDS_P1;SDS_P2;PMS_P1;PMS_P2;Temp;Humidity;BMP_temperature;BMP_pressure;BME280_temperature;BME280_humidity;BME280_pressure;Samples;Min_cycle;Max_cycle;Signal;HPM_P1;HPM_P2
2021/04/16 00:00:28;;;;;;;6.50;2.67;;;1.80;99.90;;;;;;5050739;28;20017;-74
2021/04/16 00:02:54;;;;;;;3.92;2.67;;;1.80;99.90;;;;;;5050872;28;20043;-75
2021/04/16 00:05:20;;;;;;;3.63;2.63;;;1.80;99.90;;;;;;5049101;28;20025;-74
2021/04/16 00:07:46;;;;;;;6.60;2.72;;;1.80;99.90;;;;;;5049469;28;20280;-75
2021/04/16 00:10:15;;;;;;;4.15;2.70;;;1.80;99.90;;;;;;5039114;28;20025;-75
2021/04/16 00:12:41;;;;;;;3.95;2.85;;;1.80;99.90;;;;;;5038254;28;20135;-74
2021/04/16 00:15:14;;;;;;;5.28;2.60;;;1.80;99.90;;;;;;5050630;28;20752;-75
2021/04/16 00:17:40;;;;;;;5.03;2.50;;;1.80;99.90;;;;;;5050355;28;20033;-74
2021/04/16 00:20:09;;;;;;;5.57;3.13;;;1.80;99.90;;;;;;5050941;28;20035;-75
2021/04/16 00:22:35;;;;;;;3.72;3.30;;;1.80;99.90;;;;;;5049948;28;20025;-74
2021/04/16 00:25:02;;;;;;;3.47;2.67;;;1.80;99.90;;;;;;5050464;28;20078;-75
2021/04/16 00:27:28;;;;;;;4.25;2.70;;;1.80;99.90;;;;;;5048990;28;20430;-75
2021/04/16 00:29:53;;;;;;;4.63;3.15;;;1.70;99.90;;;;;;5040424;28;20121;-75
2021/04/16 00:32:19;;;;;;;4.40;2.97;;;1.80;99.90;;;;;;5048338;28;20070;-74
2021/04/16 00:34:44;;;;;;;3.53;2.67;;;1.80;99.90;;;;;;5050597;28;20028;-75
2021/04/16 00:37:10;;;;;;;4.32;3.00;;;1.70;99.90;;;;;;5049682;28;20033;-75
2021/04/16 00:39:36;;;;;;;3.35;2.40;;;1.70;99.90;;;;;;5050264;28;20262;-74
2021/04/16 00:42:02;;;;;;;3.65;2.58;;;1.70;99.90;;;;;;5041998;28;20025;-74
2021/04/16 00:44:28;;;;;;;5.28;3.00;;;1.70;99.90;;;;;;5050375;28;20025;-74
2021/04/16 00:47:03;;;;;;;4.68;2.95;;;1.80;99.90;;;;;;5039999;28;20415;-74
2021/04/16 00:49:33;;;;;;;4.93;3.17;;;1.80;99.90;;;;;;5050510;28;20021;-74
2021/04/16 00:52:02;;;;;;;4.10;2.75;;;1.80;99.90;;;;;;5039718;28;20521;-74
2021/04/16 00:54:33;;;;;;;5.25;3.05;;;1.80;99.90;;;;;;5050209;28;20052;-74
2021/04/16 00:56:59;;;;;;;5.18;3.05;;;1.80;99.90;;;;;;5048497;28;20036;-74
2021/04/16 00:59:29;;;;;;;4.15;3.10;;;1.80;99.90;;;;;;5045778;28;20487;-74
2021/04/16 01:01:56;;;;;;;4.70;3.20;;;1.80;99.90;;;;;;5037369;28;20164;-75
2021/04/16 01:04:22;;;;;;;4.18;2.95;;;1.80;99.90;;;;;;5048621;28;20021;-74
2021/04/16 01:06:48;;;;;;;5.57;3.05;;;1.80;99.90;;;;;;5031444;28;20056;-74
2021/04/16 01:09:14;;;;;;;4.20;2.80;;;1.80;99.90;;;;;;5049843;28;20131;-74
2021/04/16 01:11:39;;;;;;;4.90;2.92;;;1.80;99.90;;;;;;5049464;28;20028;-74
2021/04/16 01:14:06;;;;;;;5.65;3.53;;;1.80;99.90;;;;;;5049953;28;20037;-74
2021/04/16 01:16:33;;;;;;;5.78;3.35;;;1.80;99.90;;;;;;5047975;28;20046;-75
2021/04/16 01:19:02;;;;;;;6.05;3.55;;;1.80;99.90;;;;;;5049881;28;20029;-74
2021/04/16 01:21:51;;;;;;;7.60;4.72;;;1.80;99.90;;;;;;5039361;28;20079;-74
2021/04/16 01:24:27;;;;;;;5.72;3.67;;;1.80;99.90;;;;;;5049878;28;20041;-74
2021/04/16 01:26:53;;;;;;;7.38;3.78;;;1.80;99.90;;;;;;5046940;28;20028;-74
2021/04/16 01:29:20;;;;;;;6.70;3.45;;;1.80;99.90;;;;;;5049536;28;20024;-74
2021/04/16 01:31:49;;;;;;;4.45;3.17;;;1.80;99.90;;;;;;5048927;28;20029;-74
2021/04/16 01:34:24;;;;;;;8.05;3.92;;;1.80;99.90;;;;;;5048639;28;20041;-74
2021/04/16 01:36:52;;;;;;;7.13;3.55;;;1.80;99.90;;;;;;5048879;28;20025;-74
2021/04/16 01:39:18;;;;;;;5.32;3.17;;;1.90;99.90;;;;;;5049524;28;20021;-74
2021/04/16 01:41:44;;;;;;;6.45;3.90;;;1.90;99.90;;;;;;5049010;28;20060;-74
2021/04/16 01:44:13;;;;;;;6.05;3.78;;;1.90;99.90;;;;;;5049635;28;20048;-74
2021/04/16 01:47:07;;;;;;;4.90;3.28;;;1.80;99.90;;;;;;5048884;28;20116;-74
2021/04/16 01:49:48;;;;;;;5.60;3.60;;;1.90;99.90;;;;;;5045876;28;20028;-74
2021/04/16 01:52:19;;;;;;;4.82;3.15;;;1.80;99.90;;;;;;5045767;28;20108;-74
2021/04/16 01:54:50;;;;;;;7.20;3.88;;;1.80;99.90;;;;;;5048384;28;20033;-74
2021/04/16 01:57:28;;;;;;;4.38;3.47;;;1.80;99.90;;;;;;5039415;28;20400;-74
2021/04/16 01:59:55;;;;;;;6.13;3.85;;;1.90;99.90;;;;;;5049334;28;20029;-74
2021/04/16 02:02:30;;;;;;;5.53;4.03;;;1.90;99.90;;;;;;5047557;28;20067;-74
2021/04/16 02:04:57;;;;;;;4.32;3.25;;;1.90;99.90;;;;;;5049450;28;20025;-74
2021/04/16 02:07:23;;;;;;;5.93;3.20;;;1.80;99.90;;;;;;5048711;28;20049;-73
2021/04/16 02:09:49;;;;;;;5.10;3.63;;;1.80;99.90;;;;;;5052888;28;20036;-74
2021/04/16 02:12:18;;;;;;;5.63;3.70;;;1.80;99.90;;;;;;5051430;28;20106;-74
2021/04/16 02:14:44;;;;;;;5.13;3.90;;;1.80;99.90;;;;;;5053444;28;20017;-74
2021/04/16 02:17:15;;;;;;;4.32;3.05;;;1.80;99.90;;;;;;5045781;28;20184;-74
2021/04/16 02:19:41;;;;;;;3.92;3.22;;;1.80;99.90;;;;;;5052769;28;20028;-74
2021/04/16 02:22:11;;;;;;;5.43;3.60;;;1.80;99.90;;;;;;5042915;28;20427;-74
2021/04/16 02:24:37;;;;;;;5.38;3.97;;;1.80;99.90;;;;;;5043388;28;20052;-74
2021/04/16 02:27:03;;;;;;;5.40;3.40;;;1.80;99.90;;;;;;5052165;28;20072;-74
2021/04/16 02:29:29;;;;;;;7.68;3.85;;;1.80;99.90;;;;;;5052565;28;20451;-74
2021/04/16 02:31:55;;;;;;;5.80;3.60;;;1.80;99.90;;;;;;5052062;28;20063;-75
2021/04/16 02:34:24;;;;;;;6.88;4.20;;;1.80;99.90;;;;;;5052400;28;20033;-74
2021/04/16 02:36:52;;;;;;;5.80;3.20;;;1.80;99.90;;;;;;5049248;28;20052;-74
2021/04/16 02:39:19;;;;;;;4.82;3.53;;;1.80;99.90;;;;;;5052723;28;20020;-74
2021/04/16 02:41:45;;;;;;;4.65;3.95;;;1.80;99.90;;;;;;5028255;28;20065;-74
2021/04/16 02:44:11;;;;;;;6.30;3.30;;;1.80;99.90;;;;;;5052711;28;20055;-74
2021/04/16 02:46:37;;;;;;;5.28;3.58;;;1.80;99.90;;;;;;5040216;28;20464;-74
2021/04/16 02:49:03;;;;;;;4.38;3.38;;;1.80;99.90;;;;;;5052448;28;20119;-74
2021/04/16 02:51:30;;;;;;;5.15;3.53;;;1.80;99.90;;;;;;5051693;28;20025;-73
2021/04/16 02:53:56;;;;;;;4.20;3.00;;;1.80;99.90;;;;;;5051183;28;20655;-73
2021/04/16 02:56:23;;;;;;;4.95;3.33;;;1.90;99.90;;;;;;5051747;28;20040;-74
2021/04/16 02:58:49;;;;;;;4.25;3.58;;;1.90;99.90;;;;;;5052122;28;20041;-74
2021/04/16 03:01:14;;;;;;;5.63;3.53;;;1.90;99.90;;;;;;5051129;28;20436;-74
2021/04/16 03:03:40;;;;;;;4.70;3.63;;;1.90;99.90;;;;;;5052205;28;20025;-74
2021/04/16 03:06:06;;;;;;;4.50;3.20;;;1.90;99.90;;;;;;5052010;28;20057;-74
2021/04/16 03:08:32;;;;;;;4.57;3.83;;;1.90;99.90;;;;;;5051805;28;20104;-74
2021/04/16 03:10:59;;;;;;;4.85;3.72;;;1.90;99.90;;;;;;5051377;28;20452;-75
2021/04/16 03:13:25;;;;;;;5.40;4.05;;;1.90;99.90;;;;;;5052032;28;20029;-74
2021/04/16 03:15:51;;;;;;;5.60;3.97;;;1.90;99.90;;;;;;5047849;28;20377;-74
2021/04/16 03:18:17;;;;;;;5.75;3.72;;;1.90;99.90;;;;;;5050075;28;20462;-74
2021/04/16 03:20:44;;;;;;;4.78;3.40;;;1.90;99.90;;;;;;5051113;28;20035;-74
2021/04/16 03:23:10;;;;;;;5.18;3.58;;;1.90;99.90;;;;;;5052008;28;20025;-74
2021/04/16 03:25:36;;;;;;;4.50;3.60;;;1.80;99.90;;;;;;5051838;28;20043;-74
2021/04/16 03:28:02;;;;;;;5.70;4.07;;;1.80;99.90;;;;;;5051136;28;20025;-74
2021/04/16 03:30:29;;;;;;;5.75;3.75;;;1.80;99.90;;;;;;5041521;28;20090;-74
2021/04/16 03:32:55;;;;;;;5.53;3.95;;;1.80;99.90;;;;;;5051999;28;20031;-75
2021/04/16 03:35:21;;;;;;;5.65;4.00;;;1.80;99.90;;;;;;5051698;28;20024;-74
2021/04/16 03:37:47;;;;;;;5.88;4.13;;;1.70;99.90;;;;;;5050860;28;20021;-74
2021/04/16 03:40:16;;;;;;;4.88;3.90;;;1.70;99.90;;;;;;5051678;28;20033;-74
2021/04/16 03:42:41;;;;;;;5.85;3.92;;;1.70;99.90;;;;;;5051027;28;20033;-74
2021/04/16 03:45:08;;;;;;;5.78;3.83;;;1.70;99.90;;;;;;5051221;28;20024;-74
2021/04/16 03:47:34;;;;;;;6.55;4.25;;;1.70;99.90;;;;;;5046949;28;20030;-74
2021/04/16 03:50:00;;;;;;;6.03;4.18;;;1.70;99.90;;;;;;5051437;28;20074;-74
2021/04/16 03:52:27;;;;;;;4.72;4.10;;;1.70;99.90;;;;;;5044675;28;20032;-74
2021/04/16 03:54:53;;;;;;;6.65;4.50;;;1.60;99.90;;;;;;5049405;28;20040;-74
2021/04/16 03:57:20;;;;;;;5.28;4.10;;;1.60;99.90;;;;;;5050018;28;20119;-74
2021/04/16 03:59:46;;;;;;;5.60;4.10;;;1.60;99.90;;;;;;5051122;28;20037;-74
2021/04/16 04:02:12;;;;;;;4.80;3.72;;;1.60;99.90;;;;;;5050600;28;20021;-74
2021/04/16 04:04:38;;;;;;;6.38;4.38;;;1.60;99.90;;;;;;5051079;28;20480;-74
2021/04/16 04:07:04;;;;;;;6.28;4.82;;;1.60;99.90;;;;;;5050593;28;20104;-74
2021/04/16 04:09:29;;;;;;;6.72;4.40;;;1.60;99.90;;;;;;5049637;28;20037;-74
2021/04/16 04:11:55;;;;;;;5.80;3.92;;;1.60;99.90;;;;;;5050303;28;20041;-74
2021/04/16 04:14:22;;;;;;;5.68;4.22;;;1.60;99.90;;;;;;5049623;28;20033;-74
2021/04/16 04:16:52;;;;;;;7.30;4.15;;;1.60;99.90;;;;;;5049834;28;20021;-74
2021/04/16 04:19:20;;;;;;;7.40;4.63;;;1.50;99.90;;;;;;5050595;28;20021;-74
2021/04/16 04:21:46;;;;;;;6.40;4.40;;;1.50;99.90;;;;;;5049007;28;20021;-74
2021/04/16 04:24:12;;;;;;;6.22;4.35;;;1.50;99.90;;;;;;5048164;28;20484;-74
2021/04/16 04:26:38;;;;;;;6.72;4.40;;;1.50;99.90;;;;;;5049732;28;20040;-74
2021/04/16 04:29:04;;;;;;;6.55;4.43;;;1.40;99.90;;;;;;5051075;28;20029;-74
2021/04/16 04:31:29;;;;;;;7.30;4.47;;;1.50;99.90;;;;;;5030770;28;20086;-74
2021/04/16 04:33:55;;;;;;;6.18;4.45;;;1.50;99.90;;;;;;5049451;28;20036;-75
2021/04/16 04:36:21;;;;;;;6.78;4.07;;;1.50;99.90;;;;;;5040304;28;20040;-74
2021/04/16 04:38:50;;;;;;;4.97;4.22;;;1.50;99.90;;;;;;5049351;28;20037;-74
2021/04/16 04:41:16;;;;;;;6.05;4.55;;;1.50;99.90;;;;;;5030033;28;20482;-74
2021/04/16 04:43:42;;;;;;;7.28;4.22;;;1.50;99.90;;;;;;5050392;28;20045;-74
2021/04/16 04:46:07;;;;;;;5.93;3.80;;;1.50;99.90;;;;;;5048243;28;20033;-74
2021/04/16 04:48:33;;;;;;;6.53;4.40;;;1.50;99.90;;;;;;5040709;28;20029;-74
2021/04/16 04:50:58;;;;;;;6.40;4.22;;;1.60;99.90;;;;;;5049740;28;20036;-74
2021/04/16 04:53:24;;;;;;;4.95;3.70;;;1.60;99.90;;;;;;5049759;28;20567;-74
2021/04/16 04:55:50;;;;;;;5.60;4.15;;;1.60;99.90;;;;;;5049622;28;20091;-74
2021/04/16 04:58:15;;;;;;;7.47;4.80;;;1.60;99.90;;;;;;5049510;28;20021;-74
2021/04/16 05:00:41;;;;;;;6.00;4.43;;;1.60;99.90;;;;;;5049510;28;20032;-73
2021/04/16 05:03:07;;;;;;;7.30;4.70;;;1.60;99.90;;;;;;5049971;28;20036;-75
2021/04/16 05:05:32;;;;;;;6.93;4.68;;;1.60;99.90;;;;;;5049477;28;20041;-74
2021/04/16 05:07:58;;;;;;;7.68;4.65;;;1.70;99.90;;;;;;5048839;28;20043;-74
2021/04/16 05:10:24;;;;;;;7.25;3.95;;;1.70;99.90;;;;;;5043642;28;20048;-75
2021/04/16 05:12:50;;;;;;;7.10;4.65;;;1.70;99.90;;;;;;5049075;28;20104;-75
2021/04/16 05:15:17;;;;;;;6.28;4.35;;;1.70;99.90;;;;;;5049464;28;20036;-74
2021/04/16 05:17:42;;;;;;;6.63;4.30;;;1.70;99.90;;;;;;5048646;28;20086;-74
2021/04/16 05:20:09;;;;;;;6.32;4.15;;;1.70;99.90;;;;;;5048348;28;20029;-74
2021/04/16 05:22:35;;;;;;;6.78;4.50;;;1.80;99.90;;;;;;5048878;28;20013;-74
2021/04/16 05:25:01;;;;;;;8.88;4.63;;;1.80;99.90;;;;;;5048918;28;20025;-74
2021/04/16 05:27:26;;;;;;;7.95;4.22;;;1.80;99.90;;;;;;5048864;28;20415;-73
2021/04/16 05:29:54;;;;;;;7.22;4.45;;;1.80;99.90;;;;;;5049307;28;20025;-74
2021/04/16 05:32:20;;;;;;;8.20;4.50;;;1.80;99.90;;;;;;5048877;28;20041;-74
2021/04/16 05:34:45;;;;;;;8.18;5.10;;;1.90;99.90;;;;;;5049187;28;20025;-75
2021/04/16 05:37:12;;;;;;;8.63;5.25;;;1.90;99.90;;;;;;5048569;28;20404;-75
2021/04/16 05:39:38;;;;;;;8.05;5.15;;;2.00;99.90;;;;;;5048966;28;20029;-75
2021/04/16 05:42:04;;;;;;;6.47;4.18;;;2.00;99.90;;;;;;5046349;28;20021;-74
2021/04/16 05:44:30;;;;;;;6.38;4.05;;;2.10;99.90;;;;;;5049330;28;20040;-74
2021/04/16 05:46:56;;;;;;;6.03;4.20;;;2.20;99.90;;;;;;5049629;28;20029;-74
2021/04/16 05:49:25;;;;;;;6.43;4.40;;;2.20;99.90;;;;;;5047201;28;20033;-74
2021/04/16 05:51:54;;;;;;;7.63;4.72;;;2.20;99.90;;;;;;5051038;28;20052;-74
2021/04/16 05:54:20;;;;;;;8.15;5.03;;;2.20;99.90;;;;;;5052862;28;20108;-75
2021/04/16 05:56:46;;;;;;;6.82;4.53;;;2.20;99.90;;;;;;5052404;28;20021;-75
2021/04/16 05:59:12;;;;;;;8.43;4.97;;;2.20;99.90;;;;;;5053246;28;20523;-74
2021/04/16 06:01:38;;;;;;;6.50;4.03;;;2.20;99.90;;;;;;5052613;28;20412;-74
2021/04/16 06:04:04;;;;;;;6.15;3.90;;;2.20;99.90;;;;;;5026652;28;20112;-75
2021/04/16 06:06:30;;;;;;;6.32;4.10;;;2.20;99.90;;;;;;5018048;28;20114;-75
2021/04/16 06:08:56;;;;;;;7.40;4.32;;;2.20;99.90;;;;;;5043046;28;20670;-74
2021/04/16 06:11:22;;;;;;;6.65;4.30;;;2.20;99.90;;;;;;5051987;28;20064;-75
2021/04/16 06:13:49;;;;;;;6.90;4.32;;;2.20;99.90;;;;;;5053141;28;20075;-74
2021/04/16 06:16:14;;;;;;;7.20;4.15;;;2.30;99.90;;;;;;5052201;28;20029;-75
2021/04/16 06:18:40;;;;;;;7.07;4.20;;;2.30;99.90;;;;;;5053157;28;20047;-75
2021/04/16 06:21:06;;;;;;;6.05;4.05;;;2.40;99.90;;;;;;5050448;28;20087;-75
2021/04/16 06:23:33;;;;;;;6.10;4.10;;;2.40;99.90;;;;;;5052999;28;20029;-75
2021/04/16 06:25:59;;;;;;;5.20;3.80;;;2.50;99.90;;;;;;5052059;28;20112;-75
2021/04/16 06:28:25;;;;;;;4.75;3.38;;;2.50;99.90;;;;;;5046359;28;20129;-74
2021/04/16 06:30:52;;;;;;;5.10;3.63;;;2.70;99.90;;;;;;5049089;28;20029;-74
2021/04/16 06:33:24;;;;;;;5.75;3.72;;;2.70;99.90;;;;;;5051894;28;20041;-75
2021/04/16 06:35:55;;;;;;;6.93;3.70;;;2.70;99.90;;;;;;5049997;28;20115;-75
2021/04/16 06:38:25;;;;;;;5.05;3.55;;;2.70;99.90;;;;;;5049448;28;20365;-75
2021/04/16 06:40:53;;;;;;;5.50;3.53;;;2.80;99.90;;;;;;5037488;28;20029;-75
2021/04/16 06:43:23;;;;;;;5.15;3.40;;;2.80;99.90;;;;;;5051374;28;20483;-75
2021/04/16 06:45:56;;;;;;;4.25;3.45;;;2.90;99.90;;;;;;5051445;28;20032;-75
2021/04/16 06:48:21;;;;;;;6.03;3.88;;;2.90;99.90;;;;;;5045129;28;20036;-75
2021/04/16 06:50:48;;;;;;;5.22;3.38;;;2.90;99.90;;;;;;5051052;28;20037;-74
2021/04/16 06:53:39;;;;;;;6.80;3.45;;;2.90;99.90;;;;;;5043794;28;20040;-75
2021/04/16 06:56:14;;;;;;;4.38;2.83;;;3.00;99.90;;;;;;5046661;28;20606;-75
2021/04/16 06:59:00;;;;;;;5.03;3.17;;;3.00;99.90;;;;;;5051023;28;20082;-75
2021/04/16 07:01:45;;;;;;;4.50;2.95;;;3.00;99.90;;;;;;5048305;28;20040;-75
2021/04/16 07:04:38;;;;;;;4.65;3.20;;;3.10;99.90;;;;;;5051470;28;20075;-75
2021/04/16 07:07:27;;;;;;;4.63;2.78;;;3.10;99.90;;;;;;5049991;28;20040;-75
2021/04/16 07:10:02;;;;;;;4.75;2.78;;;3.10;99.90;;;;;;5050232;28;20021;-75
2021/04/16 07:12:28;;;;;;;3.95;2.95;;;3.20;99.90;;;;;;5049412;28;20037;-75
2021/04/16 07:14:58;;;;;;;3.80;2.50;;;3.20;99.90;;;;;;5051785;28;20036;-75
2021/04/16 07:17:27;;;;;;;4.43;3.30;;;3.30;99.90;;;;;;5049990;28;20021;-75
2021/04/16 07:19:53;;;;;;;3.78;2.58;;;3.30;99.90;;;;;;5050714;28;20017;-75
2021/04/16 07:22:39;;;;;;;2.50;2.28;;;3.30;99.90;;;;;;5050787;28;20491;-74
2021/04/16 07:25:34;;;;;;;4.40;2.67;;;3.40;99.90;;;;;;5047844;28;20025;-75
2021/04/16 07:28:04;;;;;;;3.63;3.15;;;3.40;99.90;;;;;;5046480;28;20432;-74
2021/04/16 07:30:37;;;;;;;3.88;2.67;;;3.30;99.90;;;;;;5050809;28;20067;-75
2021/04/16 07:33:22;;;;;;;3.55;2.58;;;3.30;99.90;;;;;;5056847;28;20404;-74
2021/04/16 07:35:47;;;;;;;3.28;2.28;;;3.20;99.90;;;;;;5050799;28;20040;-74
2021/04/16 07:38:30;;;;;;;4.03;2.90;;;3.20;99.90;;;;;;5050824;28;20086;-74
2021/04/16 07:41:15;;;;;;;3.80;2.78;;;3.20;99.90;;;;;;5050209;28;20094;-74
2021/04/16 07:43:48;;;;;;;3.70;2.55;;;3.20;99.90;;;;;;5048207;28;20025;-75
2021/04/16 07:46:41;;;;;;;3.13;2.35;;;3.30;99.90;;;;;;5049366;28;20541;-74
2021/04/16 07:49:13;;;;;;;4.60;3.20;;;3.40;99.90;;;;;;5047348;28;20041;-75
2021/04/16 07:51:47;;;;;;;5.65;3.35;;;3.40;99.90;;;;;;5049276;28;20086;-74
2021/04/16 07:54:16;;;;;;;4.27;2.63;;;3.50;99.90;;;;;;5047170;28;20417;-74
2021/04/16 07:56:42;;;;;;;4.65;2.60;;;3.60;99.90;;;;;;5048991;28;20059;-74
2021/04/16 07:59:11;;;;;;;5.32;3.20;;;3.60;99.90;;;;;;5050410;28;20033;-75
2021/04/16 08:01:39;;;;;;;5.07;2.83;;;3.60;99.90;;;;;;5050187;28;20074;-75
2021/04/16 08:04:23;;;;;;;3.88;3.00;;;3.70;99.90;;;;;;5039111;28;20025;-74
2021/04/16 08:06:53;;;;;;;4.55;2.88;;;3.80;99.90;;;;;;5043215;28;20029;-74
2021/04/16 08:09:29;;;;;;;4.20;3.20;;;3.80;99.90;;;;;;5044446;28;20036;-75
2021/04/16 08:12:01;;;;;;;5.00;3.08;;;3.90;99.90;;;;;;5045518;28;20041;-75
2021/04/16 08:14:33;;;;;;;6.30;3.40;;;3.90;99.90;;;;;;5045138;28;20629;-76
2021/04/16 08:17:05;;;;;;;4.68;3.33;;;3.80;99.90;;;;;;5034430;28;20108;-75
2021/04/16 08:19:32;;;;;;;5.22;3.53;;;3.80;99.90;;;;;;5043371;28;20051;-74
2021/04/16 08:22:13;;;;;;;6.07;3.83;;;3.70;99.90;;;;;;5043516;28;20115;-74
2021/04/16 08:24:49;;;;;;;7.80;3.63;;;3.70;99.90;;;;;;5045004;28;20032;-74
2021/04/16 08:28:00;;;;;;;6.05;3.75;;;3.70;99.90;;;;;;5044956;28;20491;-75
2021/04/16 08:30:29;;;;;;;6.63;4.00;;;3.70;99.90;;;;;;4964971;28;20026;-75
2021/04/16 08:33:09;;;;;;;5.70;3.70;;;3.70;99.90;;;;;;4984690;28;20129;-74
2021/04/16 08:35:44;;;;;;;5.95;4.03;;;3.70;99.90;;;;;;5018823;28;20098;-74
2021/04/16 08:38:15;;;;;;;4.57;3.53;;;3.60;99.90;;;;;;5045029;28;20070;-74
2021/04/16 08:40:50;;;;;;;4.72;3.83;;;3.60;99.90;;;;;;5045130;28;20044;-75
2021/04/16 08:43:37;;;;;;;6.30;4.10;;;3.60;99.90;;;;;;5043576;28;20311;-74
2021/04/16 08:46:19;;;;;;;7.80;4.70;;;3.60;99.90;;;;;;5038225;28;20045;-74
2021/04/16 08:48:51;;;;;;;7.00;4.28;;;3.70;99.90;;;;;;5027683;28;20103;-75
2021/04/16 08:51:17;;;;;;;7.28;4.53;;;3.70;99.90;;;;;;5042455;28;20032;-75
2021/04/16 08:53:44;;;;;;;9.40;5.05;;;3.70;99.90;;;;;;5044852;28;20495;-74
2021/04/16 08:56:29;;;;;;;7.72;4.32;;;3.80;99.90;;;;;;5044423;28;20104;-74
2021/04/16 08:58:54;;;;;;;6.28;4.10;;;3.80;99.90;;;;;;5043197;28;20048;-74
2021/04/16 09:01:28;;;;;;;7.82;4.30;;;4.00;99.90;;;;;;5041881;28;20479;-75
2021/04/16 09:03:56;;;;;;;6.85;4.50;;;3.90;99.90;;;;;;5043038;28;20029;-75
2021/04/16 09:06:42;;;;;;;9.32;5.30;;;4.00;99.90;;;;;;5045405;28;20396;-76
2021/04/16 09:09:12;;;;;;;10.20;5.35;;;4.10;99.90;;;;;;5042546;28;20029;-75
2021/04/16 09:11:41;;;;;;;8.88;6.05;;;4.10;99.90;;;;;;5041785;28;20024;-74
2021/04/16 09:14:21;;;;;;;8.52;5.72;;;4.00;99.90;;;;;;5043754;28;20035;-75
2021/04/16 09:16:51;;;;;;;9.68;5.75;;;4.00;99.90;;;;;;5041539;28;20515;-74
2021/04/16 09:19:22;;;;;;;9.70;5.70;;;4.00;99.90;;;;;;5044601;28;20059;-75
2021/04/16 09:24:52;;;;;;;8.68;5.40;;;4.10;99.90;;;;;;5043573;28;20025;-75
2021/04/16 09:27:38;;;;;;;8.73;5.32;;;4.10;99.90;;;;;;5042992;28;20075;-75
2021/04/16 09:30:06;;;;;;;8.52;5.93;;;4.10;99.90;;;;;;5044101;28;20112;-75
2021/04/16 09:32:32;;;;;;;7.05;5.05;;;4.10;99.90;;;;;;5027013;28;20071;-75
2021/04/16 09:34:58;;;;;;;6.75;4.68;;;4.10;99.90;;;;;;5041761;28;20029;-74
2021/04/16 09:37:33;;;;;;;6.80;4.75;;;4.00;99.90;;;;;;5041468;28;20029;-74
2021/04/16 09:40:18;;;;;;;7.07;4.35;;;4.00;99.90;;;;;;5040919;28;20029;-74
2021/04/16 09:42:57;;;;;;;5.23;4.17;;;4.00;99.90;;;;;;5040442;28;20029;-75
2021/04/16 09:45:32;;;;;;;6.28;4.05;;;4.10;99.90;;;;;;5041895;28;20059;-74
2021/04/16 09:48:08;;;;;;;5.45;4.15;;;4.10;99.90;;;;;;5043531;28;20036;-75
2021/04/16 09:50:48;;;;;;;5.95;3.92;;;4.10;99.90;;;;;;5042466;28;20029;-73
2021/04/16 09:53:22;;;;;;;5.20;3.70;;;4.10;99.90;;;;;;5034653;28;20540;-75
2021/04/16 09:56:00;;;;;;;5.68;3.63;;;4.10;99.90;;;;;;5042043;28;20036;-74
2021/04/16 09:58:35;;;;;;;5.80;3.95;;;4.00;99.90;;;;;;5025529;28;20067;-75
2021/04/16 10:01:10;;;;;;;6.18;4.05;;;4.20;99.90;;;;;;5042726;28;20078;-74
2021/04/16 10:03:39;;;;;;;4.40;3.53;;;4.20;99.90;;;;;;5042916;28;20100;-75
2021/04/16 10:06:31;;;;;;;5.50;3.30;;;4.30;99.90;;;;;;5044477;28;20616;-76
2021/04/16 10:09:32;;;;;;;5.63;3.25;;;4.30;99.90;;;;;;5041474;28;20044;-75
2021/04/16 10:12:16;;;;;;;5.22;3.90;;;4.40;99.90;;;;;;4995893;28;20388;-75
2021/04/16 10:14:42;;;;;;;4.63;3.58;;;4.50;99.90;;;;;;5034372;28;20037;-75
2021/04/16 10:17:11;;;;;;;5.32;3.70;;;4.50;99.90;;;;;;5036699;28;20415;-76
2021/04/16 10:19:52;;;;;;;5.57;3.97;;;4.40;99.90;;;;;;5051464;28;20025;-75
2021/04/16 10:22:24;;;;;;;6.18;4.15;;;4.40;99.90;;;;;;5042360;28;20083;-75
2021/04/16 11:01:51;;;;;;;5.28;3.50;;;4.20;99.90;;;;;;5046383;28;20017;-74
2021/04/16 12:39:06;;;;;;;6.72;4.22;;;5.10;99.90;;;;;;5043500;28;20016;-75
2021/04/16 12:41:43;;;;;;;5.90;4.10;;;5.00;99.90;;;;;;5041105;28;20037;-75
2021/04/16 12:44:33;;;;;;;5.65;4.03;;;5.00;99.90;;;;;;5043143;28;20029;-76
2021/04/16 12:47:03;;;;;;;7.00;4.70;;;5.00;99.90;;;;;;5042373;28;20079;-75
2021/04/16 12:49:30;;;;;;;5.10;3.80;;;5.00;99.90;;;;;;5042503;28;20031;-76
2021/04/16 12:51:55;;;;;;;6.85;4.47;;;4.90;99.90;;;;;;5042939;28;20155;-75
2021/04/16 12:54:21;;;;;;;6.15;3.80;;;5.00;99.90;;;;;;5045518;28;20112;-76
2021/04/16 12:56:48;;;;;;;5.45;3.70;;;5.00;99.90;;;;;;5058606;28;20043;-75
2021/04/16 12:59:20;;;;;;;6.13;4.22;;;5.10;99.90;;;;;;5043008;28;20067;-75
2021/04/16 13:01:49;;;;;;;4.43;3.22;;;5.10;99.90;;;;;;5044476;28;20029;-75
2021/04/16 13:04:18;;;;;;;4.93;3.45;;;5.10;99.90;;;;;;5042306;28;20503;-75
2021/04/16 13:06:46;;;;;;;6.78;4.10;;;5.00;99.90;;;;;;5043787;28;20484;-75
2021/04/16 13:09:14;;;;;;;4.22;3.17;;;5.00;99.90;;;;;;5044870;28;20029;-75
2021/04/16 13:11:40;;;;;;;5.47;3.72;;;4.90;99.90;;;;;;5044929;28;20566;-75
2021/04/16 13:14:06;;;;;;;5.05;3.35;;;5.00;99.90;;;;;;5017441;28;20029;-75
2021/04/16 13:16:32;;;;;;;4.88;3.53;;;5.00;99.90;;;;;;5043841;28;20570;-75
2021/04/16 13:19:02;;;;;;;5.30;3.58;;;5.00;99.90;;;;;;5043018;28;20123;-75
2021/04/16 13:21:31;;;;;;;5.53;3.72;;;5.00;99.90;;;;;;5042706;28;20025;-75
2021/04/16 13:23:57;;;;;;;5.95;3.42;;;5.10;99.90;;;;;;5045437;28;20083;-75
2021/04/16 13:26:25;;;;;;;5.25;3.92;;;5.10;99.90;;;;;;5044425;28;20519;-75
2021/04/16 13:28:51;;;;;;;5.82;3.70;;;5.10;99.90;;;;;;5039747;28;20035;-75
2021/04/16 13:31:17;;;;;;;5.35;3.47;;;5.10;99.90;;;;;;5047843;28;20427;-75
2021/04/16 13:33:44;;;;;;;7.30;3.60;;;5.20;99.90;;;;;;5047712;28;20111;-75
2021/04/16 13:36:25;;;;;;;5.45;3.30;;;5.20;99.90;;;;;;5047605;28;20396;-75
2021/04/16 13:38:51;;;;;;;5.50;4.35;;;5.20;99.90;;;;;;5047829;28;20059;-75
2021/04/16 13:41:18;;;;;;;5.00;3.75;;;5.20;99.90;;;;;;5045949;28;20029;-75
2021/04/16 13:43:43;;;;;;;4.70;3.85;;;5.20;99.90;;;;;;5045629;28;20025;-75
2021/04/16 13:46:20;;;;;;;5.22;4.03;;;5.20;99.90;;;;;;5047030;28;20029;-75
2021/04/16 13:48:47;;;;;;;7.03;3.90;;;5.20;99.90;;;;;;5046723;28;20025;-75
2021/04/16 13:51:17;;;;;;;6.85;4.10;;;5.20;99.90;;;;;;5041203;28;20033;-75
2021/04/16 13:53:43;;;;;;;6.55;4.18;;;5.20;99.90;;;;;;5042665;28;20024;-74
2021/04/16 13:56:10;;;;;;;5.80;4.20;;;5.30;99.90;;;;;;5043234;28;20059;-75
2021/04/16 13:58:35;;;;;;;7.10;4.90;;;5.20;99.90;;;;;;5032315;28;20026;-74
2021/04/16 14:01:02;;;;;;;5.63;3.63;;;5.30;99.90;;;;;;5031533;28;20126;-75
2021/04/16 14:03:30;;;;;;;7.38;5.00;;;5.30;99.90;;;;;;5042733;28;20029;-76
2021/04/16 14:05:59;;;;;;;4.85;4.03;;;5.20;99.90;;;;;;5044186;28;20045;-75
2021/04/16 14:08:37;;;;;;;6.57;4.38;;;5.10;99.90;;;;;;5046529;28;20025;-75
2021/04/16 14:11:05;;;;;;;6.97;4.75;;;5.00;99.90;;;;;;5044297;28;20159;-76
2021/04/16 14:13:31;;;;;;;8.15;4.80;;;5.10;99.90;;;;;;5041815;28;20028;-75
2021/04/16 14:16:10;;;;;;;8.18;4.35;;;5.00;99.90;;;;;;5042876;28;20037;-75
2021/04/16 14:18:44;;;;;;;5.75;4.63;;;5.00;99.90;;;;;;5045786;28;20021;-75
2021/04/16 14:21:18;;;;;;;7.93;4.45;;;5.00;99.90;;;;;;5038874;28;20037;-76
2021/04/16 14:23:44;;;;;;;6.70;4.65;;;5.00;99.90;;;;;;5048688;28;20387;-75
2021/04/16 14:26:10;;;;;;;6.57;4.25;;;5.10;99.90;;;;;;5047627;28;20112;-75
2021/04/16 14:28:37;;;;;;;7.50;4.88;;;5.20;99.90;;;;;;5044784;28;20450;-75
2021/04/16 14:31:04;;;;;;;5.95;4.25;;;5.20;99.90;;;;;;5043575;28;20506;-75
2021/04/16 14:33:36;;;;;;;7.40;4.63;;;5.20;99.90;;;;;;5027553;28;20033;-77
2021/04/16 14:36:02;;;;;;;7.70;5.38;;;5.20;99.90;;;;;;5037774;28;20386;-75
2021/04/16 14:38:30;;;;;;;7.75;4.82;;;5.30;99.90;;;;;;5045448;28;20036;-76
2021/04/16 14:40:55;;;;;;;7.97;5.25;;;5.30;99.90;;;;;;5046283;28;20036;-77
2021/04/16 14:43:24;;;;;;;9.55;4.97;;;5.30;99.90;;;;;;5044728;28;20025;-75
2021/04/16 14:45:51;;;;;;;10.90;5.90;;;5.30;99.90;;;;;;5046866;28;20053;-75
2021/04/16 14:48:19;;;;;;;8.93;5.05;;;5.20;99.90;;;;;;5045547;28;20044;-77
2021/04/16 14:50:45;;;;;;;7.95;5.88;;;5.20;99.90;;;;;;5047221;28;20400;-75
2021/04/16 14:53:23;;;;;;;7.32;5.10;;;5.10;99.90;;;;;;5048247;28;20029;-75
2021/04/16 14:55:50;;;;;;;10.50;6.18;;;4.90;99.90;;;;;;5047267;28;20032;-75
2021/04/16 14:58:28;;;;;;;7.43;5.10;;;4.90;99.90;;;;;;5045421;28;20025;-75
2021/04/16 15:00:54;;;;;;;8.82;5.03;;;4.80;99.90;;;;;;5046479;28;20063;-75
2021/04/16 15:03:19;;;;;;;9.10;5.57;;;4.80;99.90;;;;;;5044110;28;20037;-75
2021/04/16 15:05:45;;;;;;;8.50;5.00;;;4.80;99.90;;;;;;5043755;28;20100;-75
2021/04/16 15:08:21;;;;;;;8.52;5.53;;;4.70;99.90;;;;;;5047294;28;20044;-75
2021/04/16 15:10:54;;;;;;;11.32;5.15;;;4.70;99.90;;;;;;5041291;28;20087;-74
2021/04/16 15:13:27;;;;;;;10.38;5.65;;;4.60;99.90;;;;;;5045014;28;20068;-75
2021/04/16 15:15:57;;;;;;;10.57;6.55;;;4.60;99.90;;;;;;5045289;28;20060;-75
2021/04/16 15:18:23;;;;;;;9.50;5.10;;;4.60;99.90;;;;;;5045216;28;20029;-75
2021/04/16 15:20:49;;;;;;;8.75;5.93;;;4.60;99.90;;;;;;5043697;28;20017;-75
2021/04/16 15:23:16;;;;;;;8.45;5.30;;;4.60;99.90;;;;;;5048513;28;20110;-74
2021/04/16 15:25:44;;;;;;;17.35;12.15;;;4.50;99.90;;;;;;5047495;28;20052;-76